sensor_id;sensor_type;location;lat;lon;timestamp;P1;durP1;ratioP1;P2;durP2;ratioP2
773;SDS011;370;48.810;9.150;2024-03-02T00:01:33;8.68;;;3.40;;
773;SDS011;370;48.810;9.150;2024-03-02T00:04:21;6.35;;;2.92;;
773;SDS011;370;48.810;9.150;2024-03-02T00:07:05;9.63;;;4.32;;
773;SDS011;370;48.810;9.150;2024-03-02T00:09:59;7.78;;;2.90;;
773;SDS011;370;48.810;9.150;2024-03-02T00:12:36;4.70;;;2.58;;
773;SDS011;370;48.810;9.150;2024-03-02T00:19:07;5.72;;;4.15;;
773;SDS011;370;48.810;9.150;2024-03-02T00:21:47;9.45;;;4.18;;
773;SDS011;370;48.810;9.150;2024-03-02T00:24:25;10.93;;;3.90;;
773;SDS011;370;48.810;9.150;2024-03-02T00:27:14;6.68;;;3.92;;
773;SDS011;370;48.810;9.150;2024-03-02T00:29:57;5.18;;;2.83;;
773;SDS011;370;48.810;9.150;2024-03-02T00:32:45;6.72;;;2.63;;
773;SDS011;370;48.810;9.150;2024-03-02T00:38:31;10.10;;;4.53;;
773;SDS011;370;48.810;9.150;2024-03-02T00:41:30;12.70;;;3.10;;
773;SDS011;370;48.810;9.150;2024-03-02T00:44:16;7.25;;;3.83;;
773;SDS011;370;48.810;9.150;2024-03-02T00:47:04;5.85;;;2.85;;
773;SDS011;370;48.810;9.150;2024-03-02T00:49:36;9.52;;;3.05;;
773;SDS011;370;48.810;9.150;2024-03-02T00:52:03;7.72;;;3.00;;
773;SDS011;370;48.810;9.150;2024-03-02T00:54:32;6.00;;;2.72;;
773;SDS011;370;48.810;9.150;2024-03-02T00:56:59;5.63;;;3.13;;
773;SDS011;370;48.810;9.150;2024-03-02T00:59:28;17.65;;;3.70;;
773;SDS011;370;48.810;9.150;2024-03-02T01:01:56;6.47;;;2.22;;
773;SDS011;370;48.810;9.150;2024-03-02T01:04:26;9.90;;;3.10;;
773;SDS011;370;48.810;9.150;2024-03-02T01:06:53;5.40;;;3.05;;
773;SDS011;370;48.810;9.150;2024-03-02T01:09:20;2.67;;;1.80;;
773;SDS011;370;48.810;9.150;2024-03-02T01:11:47;9.07;;;4.25;;
773;SDS011;370;48.810;9.150;2024-03-02T01:14:14;6.50;;;3.13;;
773;SDS011;370;48.810;9.150;2024-03-02T01:16:42;9.10;;;4.22;;
773;SDS011;370;48.810;9.150;2024-03-02T01:19:09;6.65;;;3.13;;
773;SDS011;370;48.810;9.150;2024-03-02T01:21:36;12.43;;;3.63;;
773;SDS011;370;48.810;9.150;2024-03-02T01:24:03;6.43;;;3.03;;
773;SDS011;370;48.810;9.150;2024-03-02T01:26:30;6.85;;;2.05;;
773;SDS011;370;48.810;9.150;2024-03-02T01:28:56;6.40;;;2.67;;
773;SDS011;370;48.810;9.150;2024-03-02T01:31:23;4.40;;;2.35;;
773;SDS011;370;48.810;9.150;2024-03-02T01:33:51;5.70;;;2.45;;
773;SDS011;370;48.810;9.150;2024-03-02T01:36:18;7.82;;;3.25;;
773;SDS011;370;48.810;9.150;2024-03-02T01:38:45;6.85;;;2.45;;
773;SDS011;370;48.810;9.150;2024-03-02T01:41:11;8.35;;;3.13;;
773;SDS011;370;48.810;9.150;2024-03-02T01:43:38;11.85;;;2.85;;
773;SDS011;370;48.810;9.150;2024-03-02T01:46:05;4.72;;;2.60;;
773;SDS011;370;48.810;9.150;2024-03-02T01:48:32;6.90;;;2.55;;
773;SDS011;370;48.810;9.150;2024-03-02T01:51:00;9.27;;;3.50;;
773;SDS011;370;48.810;9.150;2024-03-02T01:53:27;6.68;;;3.00;;
773;SDS011;370;48.810;9.150;2024-03-02T01:55:54;5.05;;;2.58;;
773;SDS011;370;48.810;9.150;2024-03-02T01:58:21;6.32;;;2.97;;
773;SDS011;370;48.810;9.150;2024-03-02T02:00:47;7.97;;;3.28;;
773;SDS011;370;48.810;9.150;2024-03-02T02:03:15;6.20;;;3.17;;
773;SDS011;370;48.810;9.150;2024-03-02T02:05:42;5.18;;;2.33;;
773;SDS011;370;48.810;9.150;2024-03-02T02:08:10;8.00;;;3.00;;
773;SDS011;370;48.810;9.150;2024-03-02T02:10:37;2.35;;;1.60;;
773;SDS011;370;48.810;9.150;2024-03-02T02:13:03;2.13;;;1.67;;
773;SDS011;370;48.810;9.150;2024-03-02T02:15:30;7.57;;;2.40;;
773;SDS011;370;48.810;9.150;2024-03-02T02:17:59;3.95;;;3.13;;
773;SDS011;370;48.810;9.150;2024-03-02T02:20:26;3.10;;;2.10;;
773;SDS011;370;48.810;9.150;2024-03-02T02:22:55;2.55;;;2.03;;
773;SDS011;370;48.810;9.150;2024-03-02T02:25:23;3.53;;;2.97;;
773;SDS011;370;48.810;9.150;2024-03-02T02:27:50;7.60;;;3.10;;
773;SDS011;370;48.810;9.150;2024-03-02T02:30:21;2.08;;;1.75;;
773;SDS011;370;48.810;9.150;2024-03-02T02:32:48;4.68;;;2.38;;
773;SDS011;370;48.810;9.150;2024-03-02T02:35:15;3.13;;;1.73;;
773;SDS011;370;48.810;9.150;2024-03-02T02:37:42;5.85;;;2.33;;
773;SDS011;370;48.810;9.150;2024-03-02T02:40:11;4.20;;;2.58;;
773;SDS011;370;48.810;9.150;2024-03-02T02:42:39;3.72;;;2.15;;
773;SDS011;370;48.810;9.150;2024-03-02T02:45:06;3.83;;;1.88;;
773;SDS011;370;48.810;9.150;2024-03-02T02:47:34;8.73;;;3.10;;
773;SDS011;370;48.810;9.150;2024-03-02T02:50:01;4.35;;;3.03;;
773;SDS011;370;48.810;9.150;2024-03-02T02:52:31;4.25;;;3.15;;
773;SDS011;370;48.810;9.150;2024-03-02T02:55:00;14.80;;;3.30;;
773;SDS011;370;48.810;9.150;2024-03-02T02:57:30;5.05;;;2.88;;
773;SDS011;370;48.810;9.150;2024-03-02T03:00:00;3.17;;;2.33;;
773;SDS011;370;48.810;9.150;2024-03-02T03:02:30;6.63;;;2.47;;
773;SDS011;370;48.810;9.150;2024-03-02T03:04:57;3.05;;;2.13;;
773;SDS011;370;48.810;9.150;2024-03-02T03:07:23;7.05;;;3.35;;
773;SDS011;370;48.810;9.150;2024-03-02T03:09:50;7.38;;;2.95;;
773;SDS011;370;48.810;9.150;2024-03-02T03:12:17;13.85;;;2.35;;
773;SDS011;370;48.810;9.150;2024-03-02T03:14:45;2.83;;;2.38;;
773;SDS011;370;48.810;9.150;2024-03-02T03:17:12;6.43;;;1.67;;
773;SDS011;370;48.810;9.150;2024-03-02T03:19:38;8.27;;;3.95;;
773;SDS011;370;48.810;9.150;2024-03-02T03:22:05;8.60;;;3.00;;
773;SDS011;370;48.810;9.150;2024-03-02T03:24:32;6.60;;;2.75;;
773;SDS011;370;48.810;9.150;2024-03-02T03:26:59;8.43;;;2.92;;
773;SDS011;370;48.810;9.150;2024-03-02T03:29:26;4.53;;;1.98;;
773;SDS011;370;48.810;9.150;2024-03-02T03:31:54;4.70;;;1.88;;
773;SDS011;370;48.810;9.150;2024-03-02T03:34:20;8.13;;;2.55;;
773;SDS011;370;48.810;9.150;2024-03-02T03:36:47;7.50;;;2.72;;
773;SDS011;370;48.810;9.150;2024-03-02T03:39:14;3.83;;;1.60;;
773;SDS011;370;48.810;9.150;2024-03-02T03:41:41;3.47;;;2.35;;
773;SDS011;370;48.810;9.150;2024-03-02T03:44:07;5.90;;;2.70;;
773;SDS011;370;48.810;9.150;2024-03-02T03:46:34;4.28;;;2.25;;
773;SDS011;370;48.810;9.150;2024-03-02T03:49:03;4.32;;;2.85;;
773;SDS011;370;48.810;9.150;2024-03-02T03:51:30;8.77;;;2.10;;
773;SDS011;370;48.810;9.150;2024-03-02T03:53:57;7.00;;;3.10;;
773;SDS011;370;48.810;9.150;2024-03-02T03:56:23;12.23;;;3.22;;
773;SDS011;370;48.810;9.150;2024-03-02T03:58:50;13.77;;;3.20;;
773;SDS011;370;48.810;9.150;2024-03-02T04:01:17;2.20;;;1.55;;
773;SDS011;370;48.810;9.150;2024-03-02T04:03:44;3.55;;;2.17;;
773;SDS011;370;48.810;9.150;2024-03-02T04:06:12;7.70;;;1.67;;
773;SDS011;370;48.810;9.150;2024-03-02T04:08:41;9.88;;;2.92;;
773;SDS011;370;48.810;9.150;2024-03-02T04:11:08;26.02;;;3.38;;
773;SDS011;370;48.810;9.150;2024-03-02T04:13:35;3.85;;;1.77;;
773;SDS011;370;48.810;9.150;2024-03-02T04:16:02;5.03;;;2.97;;
773;SDS011;370;48.810;9.150;2024-03-02T04:18:30;1.83;;;1.55;;
773;SDS011;370;48.810;9.150;2024-03-02T04:20:57;4.10;;;1.67;;
773;SDS011;370;48.810;9.150;2024-03-02T04:23:25;16.38;;;3.15;;
773;SDS011;370;48.810;9.150;2024-03-02T04:25:52;7.47;;;2.20;;
773;SDS011;370;48.810;9.150;2024-03-02T04:28:19;3.97;;;2.00;;
773;SDS011;370;48.810;9.150;2024-03-02T04:30:45;4.00;;;2.25;;
773;SDS011;370;48.810;9.150;2024-03-02T04:33:12;4.10;;;2.25;;
773;SDS011;370;48.810;9.150;2024-03-02T04:35:39;4.10;;;2.20;;
773;SDS011;370;48.810;9.150;2024-03-02T04:38:06;2.72;;;2.10;;
773;SDS011;370;48.810;9.150;2024-03-02T04:40:34;11.65;;;3.30;;
773;SDS011;370;48.810;9.150;2024-03-02T04:43:00;4.32;;;1.65;;
773;SDS011;370;48.810;9.150;2024-03-02T04:45:28;4.95;;;2.90;;
773;SDS011;370;48.810;9.150;2024-03-02T04:47:55;4.90;;;2.60;;
773;SDS011;370;48.810;9.150;2024-03-02T04:50:22;3.97;;;1.98;;
773;SDS011;370;48.810;9.150;2024-03-02T04:52:48;1.70;;;1.42;;
773;SDS011;370;48.810;9.150;2024-03-02T04:55:15;9.00;;;3.10;;
773;SDS011;370;48.810;9.150;2024-03-02T04:58:11;6.07;;;2.05;;
773;SDS011;370;48.810;9.150;2024-03-02T05:00:38;2.53;;;1.35;;
773;SDS011;370;48.810;9.150;2024-03-02T05:03:05;4.75;;;2.42;;
773;SDS011;370;48.810;9.150;2024-03-02T05:05:31;5.38;;;1.98;;
773;SDS011;370;48.810;9.150;2024-03-02T05:07:58;3.88;;;1.63;;
773;SDS011;370;48.810;9.150;2024-03-02T05:10:25;6.45;;;2.75;;
773;SDS011;370;48.810;9.150;2024-03-02T05:12:51;5.82;;;2.22;;
773;SDS011;370;48.810;9.150;2024-03-02T05:15:25;8.68;;;2.72;;
773;SDS011;370;48.810;9.150;2024-03-02T05:17:52;14.13;;;3.33;;
773;SDS011;370;48.810;9.150;2024-03-02T05:20:19;5.78;;;2.92;;
773;SDS011;370;48.810;9.150;2024-03-02T05:22:46;2.88;;;2.60;;
773;SDS011;370;48.810;9.150;2024-03-02T05:25:13;5.13;;;1.98;;
773;SDS011;370;48.810;9.150;2024-03-02T05:27:40;3.72;;;2.10;;
773;SDS011;370;48.810;9.150;2024-03-02T05:30:07;6.57;;;3.40;;
773;SDS011;370;48.810;9.150;2024-03-02T05:32:36;2.88;;;2.25;;
773;SDS011;370;48.810;9.150;2024-03-02T05:35:03;3.00;;;1.90;;
773;SDS011;370;48.810;9.150;2024-03-02T05:37:31;5.85;;;2.05;;
773;SDS011;370;48.810;9.150;2024-03-02T05:39:57;5.22;;;1.83;;
773;SDS011;370;48.810;9.150;2024-03-02T05:42:25;5.97;;;2.20;;
773;SDS011;370;48.810;9.150;2024-03-02T05:44:52;8.68;;;2.85;;
773;SDS011;370;48.810;9.150;2024-03-02T05:47:19;4.72;;;2.85;;
773;SDS011;370;48.810;9.150;2024-03-02T05:49:47;2.35;;;2.15;;
773;SDS011;370;48.810;9.150;2024-03-02T05:52:14;5.70;;;2.15;;
773;SDS011;370;48.810;9.150;2024-03-02T05:54:41;8.10;;;4.43;;
773;SDS011;370;48.810;9.150;2024-03-02T05:57:07;4.10;;;2.65;;
773;SDS011;370;48.810;9.150;2024-03-02T05:59:57;5.07;;;2.00;;
773;SDS011;370;48.810;9.150;2024-03-02T06:02:24;3.90;;;1.73;;
773;SDS011;370;48.810;9.150;2024-03-02T06:04:52;2.88;;;2.50;;
773;SDS011;370;48.810;9.150;2024-03-02T06:07:20;4.15;;;2.47;;
773;SDS011;370;48.810;9.150;2024-03-02T06:09:47;6.50;;;3.15;;
773;SDS011;370;48.810;9.150;2024-03-02T06:12:15;13.18;;;2.45;;
773;SDS011;370;48.810;9.150;2024-03-02T06:14:43;6.65;;;2.38;;
773;SDS011;370;48.810;9.150;2024-03-02T06:17:09;5.75;;;1.67;;
773;SDS011;370;48.810;9.150;2024-03-02T06:19:36;1.73;;;1.60;;
773;SDS011;370;48.810;9.150;2024-03-02T06:22:04;3.92;;;2.45;;
773;SDS011;370;48.810;9.150;2024-03-02T06:24:35;3.67;;;2.47;;
773;SDS011;370;48.810;9.150;2024-03-02T06:27:02;1.65;;;1.60;;
773;SDS011;370;48.810;9.150;2024-03-02T06:29:29;4.57;;;2.65;;
773;SDS011;370;48.810;9.150;2024-03-02T06:31:56;2.90;;;2.00;;
773;SDS011;370;48.810;9.150;2024-03-02T06:34:22;5.68;;;3.97;;
773;SDS011;370;48.810;9.150;2024-03-02T06:36:49;8.25;;;3.28;;
773;SDS011;370;48.810;9.150;2024-03-02T06:39:17;8.00;;;2.75;;
773;SDS011;370;48.810;9.150;2024-03-02T06:41:44;7.70;;;3.13;;
773;SDS011;370;48.810;9.150;2024-03-02T06:44:12;7.50;;;3.28;;
773;SDS011;370;48.810;9.150;2024-03-02T06:46:38;4.75;;;3.13;;
773;SDS011;370;48.810;9.150;2024-03-02T06:49:06;8.75;;;3.05;;
773;SDS011;370;48.810;9.150;2024-03-02T06:51:33;11.38;;;4.90;;
773;SDS011;370;48.810;9.150;2024-03-02T06:54:00;4.57;;;2.60;;
773;SDS011;370;48.810;9.150;2024-03-02T06:56:28;13.10;;;5.50;;
773;SDS011;370;48.810;9.150;2024-03-02T06:58:55;14.73;;;2.70;;
773;SDS011;370;48.810;9.150;2024-03-02T07:01:22;8.93;;;3.58;;
773;SDS011;370;48.810;9.150;2024-03-02T07:03:51;8.35;;;3.65;;
773;SDS011;370;48.810;9.150;2024-03-02T07:06:18;21.95;;;3.60;;
773;SDS011;370;48.810;9.150;2024-03-02T07:08:45;10.30;;;3.72;;
773;SDS011;370;48.810;9.150;2024-03-02T07:11:11;11.25;;;4.32;;
773;SDS011;370;48.810;9.150;2024-03-02T07:13:39;10.32;;;3.45;;
773;SDS011;370;48.810;9.150;2024-03-02T07:16:06;8.70;;;4.30;;
773;SDS011;370;48.810;9.150;2024-03-02T07:18:52;9.43;;;3.05;;
773;SDS011;370;48.810;9.150;2024-03-02T07:21:21;14.02;;;5.18;;
773;SDS011;370;48.810;9.150;2024-03-02T07:23:48;15.35;;;5.50;;
773;SDS011;370;48.810;9.150;2024-03-02T07:26:15;9.18;;;4.70;;
773;SDS011;370;48.810;9.150;2024-03-02T07:28:44;9.63;;;4.70;;
773;SDS011;370;48.810;9.150;2024-03-02T07:31:12;11.95;;;4.68;;
773;SDS011;370;48.810;9.150;2024-03-02T07:33:39;9.60;;;5.65;;
773;SDS011;370;48.810;9.150;2024-03-02T07:36:06;12.77;;;4.38;;
773;SDS011;370;48.810;9.150;2024-03-02T07:38:33;7.95;;;3.83;;
773;SDS011;370;48.810;9.150;2024-03-02T07:41:00;10.25;;;5.05;;
773;SDS011;370;48.810;9.150;2024-03-02T07:43:27;12.52;;;4.43;;
773;SDS011;370;48.810;9.150;2024-03-02T07:45:56;7.22;;;3.17;;
773;SDS011;370;48.810;9.150;2024-03-02T07:48:22;18.17;;;3.97;;
773;SDS011;370;48.810;9.150;2024-03-02T07:50:49;7.53;;;4.13;;
773;SDS011;370;48.810;9.150;2024-03-02T07:53:16;7.55;;;3.70;;
773;SDS011;370;48.810;9.150;2024-03-02T07:55:43;6.75;;;3.53;;
773;SDS011;370;48.810;9.150;2024-03-02T07:58:10;15.95;;;4.20;;
773;SDS011;370;48.810;9.150;2024-03-02T08:00:38;8.93;;;2.95;;
773;SDS011;370;48.810;9.150;2024-03-02T08:03:06;12.57;;;3.42;;
773;SDS011;370;48.810;9.150;2024-03-02T08:05:36;8.10;;;3.22;;
773;SDS011;370;48.810;9.150;2024-03-02T08:08:03;15.05;;;5.00;;
773;SDS011;370;48.810;9.150;2024-03-02T08:10:30;6.85;;;3.03;;
773;SDS011;370;48.810;9.150;2024-03-02T08:12:58;7.40;;;3.53;;
773;SDS011;370;48.810;9.150;2024-03-02T08:15:25;7.18;;;3.97;;
773;SDS011;370;48.810;9.150;2024-03-02T08:17:52;6.00;;;3.30;;
773;SDS011;370;48.810;9.150;2024-03-02T08:20:20;12.25;;;3.55;;
773;SDS011;370;48.810;9.150;2024-03-02T08:22:47;12.90;;;4.22;;
773;SDS011;370;48.810;9.150;2024-03-02T08:25:14;7.25;;;3.45;;
773;SDS011;370;48.810;9.150;2024-03-02T08:27:41;12.07;;;3.83;;
773;SDS011;370;48.810;9.150;2024-03-02T08:30:08;17.55;;;4.85;;
773;SDS011;370;48.810;9.150;2024-03-02T08:32:35;12.63;;;5.43;;
773;SDS011;370;48.810;9.150;2024-03-02T08:35:02;9.85;;;4.85;;
773;SDS011;370;48.810;9.150;2024-03-02T08:37:31;8.68;;;4.80;;
773;SDS011;370;48.810;9.150;2024-03-02T08:39:58;11.27;;;4.77;;
773;SDS011;370;48.810;9.150;2024-03-02T08:42:26;10.20;;;4.33;;
773;SDS011;370;48.810;9.150;2024-03-02T08:44:53;8.20;;;3.80;;
773;SDS011;370;48.810;9.150;2024-03-02T08:47:20;10.73;;;4.50;;
773;SDS011;370;48.810;9.150;2024-03-02T08:49:46;11.00;;;4.50;;
773;SDS011;370;48.810;9.150;2024-03-02T08:52:13;9.70;;;4.00;;
773;SDS011;370;48.810;9.150;2024-03-02T08:54:41;9.50;;;3.80;;
773;SDS011;370;48.810;9.150;2024-03-02T08:57:08;8.30;;;3.20;;
773;SDS011;370;48.810;9.150;2024-03-02T08:59:35;9.50;;;3.50;;
773;SDS011;370;48.810;9.150;2024-03-02T09:02:01;5.27;;;2.63;;
773;SDS011;370;48.810;9.150;2024-03-02T09:04:28;7.93;;;3.80;;
773;SDS011;370;48.810;9.150;2024-03-02T09:06:55;8.00;;;3.03;;
773;SDS011;370;48.810;9.150;2024-03-02T09:09:22;5.00;;;3.07;;
773;SDS011;370;48.810;9.150;2024-03-02T09:11:50;4.07;;;2.90;;
773;SDS011;370;48.810;9.150;2024-03-02T09:14:19;5.40;;;3.33;;
773;SDS011;370;48.810;9.150;2024-03-02T09:16:46;5.50;;;3.00;;
773;SDS011;370;48.810;9.150;2024-03-02T09:19:13;3.63;;;2.90;;
773;SDS011;370;48.810;9.150;2024-03-02T09:21:41;3.43;;;2.83;;
773;SDS011;370;48.810;9.150;2024-03-02T09:24:10;4.93;;;3.47;;
773;SDS011;370;48.810;9.150;2024-03-02T09:26:38;4.13;;;3.20;;
773;SDS011;370;48.810;9.150;2024-03-02T09:29:08;4.40;;;2.93;;
773;SDS011;370;48.810;9.150;2024-03-02T09:31:38;5.37;;;2.93;;
773;SDS011;370;48.810;9.150;2024-03-02T09:34:06;4.23;;;2.73;;
773;SDS011;370;48.810;9.150;2024-03-02T09:36:33;3.87;;;2.70;;
773;SDS011;370;48.810;9.150;2024-03-02T09:39:00;3.47;;;3.00;;
773;SDS011;370;48.810;9.150;2024-03-02T09:41:29;4.03;;;2.80;;
773;SDS011;370;48.810;9.150;2024-03-02T09:43:56;5.00;;;3.13;;
773;SDS011;370;48.810;9.150;2024-03-02T09:46:25;5.60;;;2.60;;
773;SDS011;370;48.810;9.150;2024-03-02T09:48:52;3.77;;;2.80;;
773;SDS011;370;48.810;9.150;2024-03-02T09:51:19;5.23;;;2.80;;
773;SDS011;370;48.810;9.150;2024-03-02T09:53:47;4.37;;;2.53;;
773;SDS011;370;48.810;9.150;2024-03-02T09:56:16;5.87;;;3.00;;
773;SDS011;370;48.810;9.150;2024-03-02T09:58:44;3.63;;;3.07;;
773;SDS011;370;48.810;9.150;2024-03-02T10:01:11;3.07;;;2.80;;
773;SDS011;370;48.810;9.150;2024-03-02T10:03:39;4.93;;;2.70;;
773;SDS011;370;48.810;9.150;2024-03-02T10:06:18;5.10;;;3.10;;
773;SDS011;370;48.810;9.150;2024-03-02T10:08:45;4.70;;;2.80;;
773;SDS011;370;48.810;9.150;2024-03-02T10:11:23;3.40;;;2.67;;
773;SDS011;370;48.810;9.150;2024-03-02T10:13:59;3.33;;;2.60;;
773;SDS011;370;48.810;9.150;2024-03-02T10:16:33;4.53;;;3.00;;
773;SDS011;370;48.810;9.150;2024-03-02T10:19:09;2.83;;;2.33;;
773;SDS011;370;48.810;9.150;2024-03-02T10:21:42;4.03;;;2.40;;
773;SDS011;370;48.810;9.150;2024-03-02T10:24:09;5.90;;;3.20;;
773;SDS011;370;48.810;9.150;2024-03-02T10:26:37;7.77;;;3.93;;
773;SDS011;370;48.810;9.150;2024-03-02T10:29:04;5.47;;;3.20;;
773;SDS011;370;48.810;9.150;2024-03-02T10:31:31;6.40;;;4.30;;
773;SDS011;370;48.810;9.150;2024-03-02T10:33:58;4.63;;;3.80;;
773;SDS011;370;48.810;9.150;2024-03-02T10:36:28;5.93;;;3.47;;
773;SDS011;370;48.810;9.150;2024-03-02T10:38:56;6.17;;;4.07;;
773;SDS011;370;48.810;9.150;2024-03-02T10:41:29;7.83;;;3.57;;
773;SDS011;370;48.810;9.150;2024-03-02T10:43:58;5.37;;;3.87;;
773;SDS011;370;48.810;9.150;2024-03-02T10:46:27;6.07;;;3.50;;
773;SDS011;370;48.810;9.150;2024-03-02T10:48:55;5.33;;;3.97;;
773;SDS011;370;48.810;9.150;2024-03-02T10:51:24;5.70;;;3.37;;
773;SDS011;370;48.810;9.150;2024-03-02T10:53:52;6.03;;;3.77;;
773;SDS011;370;48.810;9.150;2024-03-02T10:56:21;4.07;;;3.03;;
773;SDS011;370;48.810;9.150;2024-03-02T10:58:54;5.17;;;3.10;;
773;SDS011;370;48.810;9.150;2024-03-02T11:01:27;4.77;;;3.43;;
773;SDS011;370;48.810;9.150;2024-03-02T11:03:57;3.80;;;3.37;;
773;SDS011;370;48.810;9.150;2024-03-02T11:06:26;6.90;;;4.10;;
773;SDS011;370;48.810;9.150;2024-03-02T11:08:59;4.13;;;3.17;;
773;SDS011;370;48.810;9.150;2024-03-02T11:11:32;5.90;;;3.60;;
773;SDS011;370;48.810;9.150;2024-03-02T11:14:02;4.10;;;3.20;;
773;SDS011;370;48.810;9.150;2024-03-02T11:16:34;4.30;;;2.90;;
773;SDS011;370;48.810;9.150;2024-03-02T11:19:02;3.40;;;2.70;;
773;SDS011;370;48.810;9.150;2024-03-02T11:21:32;9.40;;;3.37;;
773;SDS011;370;48.810;9.150;2024-03-02T11:24:01;5.70;;;2.87;;
773;SDS011;370;48.810;9.150;2024-03-02T11:27:06;2.50;;;2.30;;
773;SDS011;370;48.810;9.150;2024-03-02T11:29:49;2.97;;;2.57;;
773;SDS011;370;48.810;9.150;2024-03-02T11:32:36;5.50;;;3.00;;
773;SDS011;370;48.810;9.150;2024-03-02T11:35:14;4.47;;;2.70;;
773;SDS011;370;48.810;9.150;2024-03-02T11:37:41;3.03;;;2.67;;
773;SDS011;370;48.810;9.150;2024-03-02T11:40:19;2.63;;;2.40;;
773;SDS011;370;48.810;9.150;2024-03-02T11:43:07;3.80;;;2.60;;
773;SDS011;370;48.810;9.150;2024-03-02T11:45:58;2.73;;;2.53;;
773;SDS011;370;48.810;9.150;2024-03-02T11:48:39;1.87;;;1.80;;
773;SDS011;370;48.810;9.150;2024-03-02T11:51:11;1.83;;;1.73;;
773;SDS011;370;48.810;9.150;2024-03-02T11:53:59;2.93;;;2.47;;
773;SDS011;370;48.810;9.150;2024-03-02T11:56:36;1.87;;;1.77;;
773;SDS011;370;48.810;9.150;2024-03-02T11:59:03;2.23;;;2.03;;
773;SDS011;370;48.810;9.150;2024-03-02T12:01:29;2.63;;;1.90;;
773;SDS011;370;48.810;9.150;2024-03-02T12:04:00;2.50;;;1.60;;
773;SDS011;370;48.810;9.150;2024-03-02T12:06:27;3.30;;;1.90;;
773;SDS011;370;48.810;9.150;2024-03-02T12:08:55;1.77;;;1.67;;
773;SDS011;370;48.810;9.150;2024-03-02T12:11:22;2.70;;;1.90;;
773;SDS011;370;48.810;9.150;2024-03-02T12:13:53;3.90;;;1.97;;
773;SDS011;370;48.810;9.150;2024-03-02T12:16:22;2.27;;;1.80;;
773;SDS011;370;48.810;9.150;2024-03-02T12:18:50;2.00;;;1.67;;
773;SDS011;370;48.810;9.150;2024-03-02T12:21:16;1.60;;;1.60;;
773;SDS011;370;48.810;9.150;2024-03-02T12:23:43;1.57;;;1.47;;
773;SDS011;370;48.810;9.150;2024-03-02T12:26:10;1.50;;;1.50;;
773;SDS011;370;48.810;9.150;2024-03-02T12:28:37;1.83;;;1.37;;
773;SDS011;370;48.810;9.150;2024-03-02T12:31:05;1.43;;;1.33;;
773;SDS011;370;48.810;9.150;2024-03-02T12:33:32;6.83;;;1.60;;
773;SDS011;370;48.810;9.150;2024-03-02T12:35:59;3.20;;;1.50;;
773;SDS011;370;48.810;9.150;2024-03-02T12:38:26;1.50;;;1.20;;
773;SDS011;370;48.810;9.150;2024-03-02T12:40:54;1.33;;;1.27;;
773;SDS011;370;48.810;9.150;2024-03-02T12:43:21;1.40;;;1.27;;
773;SDS011;370;48.810;9.150;2024-03-02T12:45:49;1.10;;;1.00;;
773;SDS011;370;48.810;9.150;2024-03-02T12:48:17;1.30;;;1.20;;
773;SDS011;370;48.810;9.150;2024-03-02T12:50:43;1.20;;;1.10;;
773;SDS011;370;48.810;9.150;2024-03-02T12:53:13;1.60;;;1.07;;
773;SDS011;370;48.810;9.150;2024-03-02T12:55:41;1.23;;;1.10;;
773;SDS011;370;48.810;9.150;2024-03-02T12:58:15;2.30;;;1.30;;
773;SDS011;370;48.810;9.150;2024-03-02T13:00:43;1.70;;;1.40;;
773;SDS011;370;48.810;9.150;2024-03-02T13:03:09;1.20;;;1.10;;
773;SDS011;370;48.810;9.150;2024-03-02T13:05:40;1.37;;;1.30;;
773;SDS011;370;48.810;9.150;2024-03-02T13:08:06;1.10;;;1.00;;
773;SDS011;370;48.810;9.150;2024-03-02T13:10:33;1.20;;;1.10;;
773;SDS011;370;48.810;9.150;2024-03-02T13:13:00;1.20;;;1.10;;
773;SDS011;370;48.810;9.150;2024-03-02T13:15:27;2.10;;;0.90;;
773;SDS011;370;48.810;9.150;2024-03-02T13:17:54;1.27;;;1.20;;
773;SDS011;370;48.810;9.150;2024-03-02T13:20:29;1.43;;;1.00;;
773;SDS011;370;48.810;9.150;2024-03-02T13:22:59;1.37;;;1.10;;
773;SDS011;370;48.810;9.150;2024-03-02T13:25:26;3.03;;;1.00;;
773;SDS011;370;48.810;9.150;2024-03-02T13:27:53;1.53;;;1.00;;
773;SDS011;370;48.810;9.150;2024-03-02T13:30:19;1.27;;;1.03;;
773;SDS011;370;48.810;9.150;2024-03-02T13:32:46;0.90;;;0.80;;
773;SDS011;370;48.810;9.150;2024-03-02T13:35:13;2.33;;;0.83;;
773;SDS011;370;48.810;9.150;2024-03-02T13:37:40;0.93;;;0.90;;
773;SDS011;370;48.810;9.150;2024-03-02T13:40:08;1.00;;;0.90;;
773;SDS011;370;48.810;9.150;2024-03-02T13:42:38;1.73;;;1.00;;
773;SDS011;370;48.810;9.150;2024-03-02T13:45:06;1.10;;;1.00;;
773;SDS011;370;48.810;9.150;2024-03-02T13:47:33;1.03;;;0.93;;
773;SDS011;370;48.810;9.150;2024-03-02T13:49:59;0.97;;;0.87;;
773;SDS011;370;48.810;9.150;2024-03-02T13:52:27;0.93;;;0.87;;
773;SDS011;370;48.810;9.150;2024-03-02T13:54:55;1.17;;;0.80;;
773;SDS011;370;48.810;9.150;2024-03-02T13:57:23;0.93;;;0.87;;
773;SDS011;370;48.810;9.150;2024-03-02T13:59:50;2.67;;;0.90;;
773;SDS011;370;48.810;9.150;2024-03-02T14:02:18;3.83;;;1.10;;
773;SDS011;370;48.810;9.150;2024-03-02T14:04:45;2.13;;;0.93;;
773;SDS011;370;48.810;9.150;2024-03-02T14:07:11;1.73;;;0.80;;
773;SDS011;370;48.810;9.150;2024-03-02T14:09:38;3.07;;;1.00;;
773;SDS011;370;48.810;9.150;2024-03-02T14:12:06;0.83;;;0.80;;
773;SDS011;370;48.810;9.150;2024-03-02T14:14:34;1.63;;;1.00;;
773;SDS011;370;48.810;9.150;2024-03-02T14:17:01;4.90;;;1.40;;
773;SDS011;370;48.810;9.150;2024-03-02T14:19:31;2.00;;;0.90;;
773;SDS011;370;48.810;9.150;2024-03-02T14:21:58;1.43;;;1.00;;
773;SDS011;370;48.810;9.150;2024-03-02T14:24:25;0.90;;;0.80;;
773;SDS011;370;48.810;9.150;2024-03-02T14:27:00;2.33;;;1.50;;
773;SDS011;370;48.810;9.150;2024-03-02T14:29:29;0.73;;;0.63;;
773;SDS011;370;48.810;9.150;2024-03-02T14:31:57;1.17;;;0.93;;
773;SDS011;370;48.810;9.150;2024-03-02T14:34:24;1.00;;;0.90;;
773;SDS011;370;48.810;9.150;2024-03-02T14:36:51;1.03;;;0.90;;
773;SDS011;370;48.810;9.150;2024-03-02T14:39:17;1.10;;;1.00;;
773;SDS011;370;48.810;9.150;2024-03-02T14:41:45;1.83;;;0.87;;
773;SDS011;370;48.810;9.150;2024-03-02T14:44:12;4.47;;;0.87;;
773;SDS011;370;48.810;9.150;2024-03-02T14:46:39;1.10;;;1.00;;
773;SDS011;370;48.810;9.150;2024-03-02T14:49:07;0.70;;;0.60;;
773;SDS011;370;48.810;9.150;2024-03-02T14:51:34;1.10;;;1.00;;
773;SDS011;370;48.810;9.150;2024-03-02T14:57:22;0.93;;;0.83;;
773;SDS011;370;48.810;9.150;2024-03-02T14:59:49;1.13;;;1.03;;
773;SDS011;370;48.810;9.150;2024-03-02T15:02:16;2.67;;;1.00;;
773;SDS011;370;48.810;9.150;2024-03-02T15:04:44;0.87;;;0.77;;
773;SDS011;370;48.810;9.150;2024-03-02T15:07:12;1.33;;;0.80;;
773;SDS011;370;48.810;9.150;2024-03-02T15:09:39;0.90;;;0.83;;
773;SDS011;370;48.810;9.150;2024-03-02T15:12:06;4.53;;;0.90;;
773;SDS011;370;48.810;9.150;2024-03-02T15:14:37;0.83;;;0.77;;
773;SDS011;370;48.810;9.150;2024-03-02T15:17:10;0.87;;;0.70;;
773;SDS011;370;48.810;9.150;2024-03-02T15:19:40;1.50;;;0.80;;
773;SDS011;370;48.810;9.150;2024-03-02T15:22:08;0.63;;;0.53;;
773;SDS011;370;48.810;9.150;2024-03-02T15:24:35;1.90;;;0.80;;
773;SDS011;370;48.810;9.150;2024-03-02T15:27:02;0.80;;;0.70;;
773;SDS011;370;48.810;9.150;2024-03-02T15:29:29;0.70;;;0.60;;
773;SDS011;370;48.810;9.150;2024-03-02T15:31:56;0.70;;;0.60;;
773;SDS011;370;48.810;9.150;2024-03-02T15:34:23;2.83;;;0.83;;
773;SDS011;370;48.810;9.150;2024-03-02T15:37:09;1.77;;;1.10;;
773;SDS011;370;48.810;9.150;2024-03-02T15:39:37;1.00;;;0.80;;
773;SDS011;370;48.810;9.150;2024-03-02T15:42:03;0.93;;;0.70;;
773;SDS011;370;48.810;9.150;2024-03-02T15:44:30;1.33;;;0.83;;
773;SDS011;370;48.810;9.150;2024-03-02T15:46:57;0.87;;;0.83;;
773;SDS011;370;48.810;9.150;2024-03-02T15:49:24;2.70;;;1.00;;
773;SDS011;370;48.810;9.150;2024-03-02T15:51:52;1.43;;;1.10;;
773;SDS011;370;48.810;9.150;2024-03-02T15:54:20;1.57;;;1.10;;
773;SDS011;370;48.810;9.150;2024-03-02T15:56:47;3.23;;;1.20;;
773;SDS011;370;48.810;9.150;2024-03-02T15:59:14;1.00;;;0.70;;
773;SDS011;370;48.810;9.150;2024-03-02T16:01:40;1.10;;;0.70;;
773;SDS011;370;48.810;9.150;2024-03-02T16:04:08;2.57;;;1.20;;
773;SDS011;370;48.810;9.150;2024-03-02T16:06:35;1.27;;;0.90;;